Time;durP1;ratioP1;P1;durP2;ratioP2;P2;SDS_P1;SDS_P2;PMS_P1;PMS_P2;Temp;Humidity;BMP_temperature;BMP_pressure;BME280_temperature;BME280_humidity;BME280_pressure;Samples;Min_cycle;Max_cycle;Signal;HPM_P1;HPM_P2
2023/10/20 00:02:22;;;;;;;;;;;;;;;13.65;100.00;98503.66;5015830;28;19920;-94
2023/10/20 00:04:48;;;;;;;;;;;;;;;13.63;100.00;98505.47;5015926;28;19921;-93
2023/10/20 00:07:13;;;;;;;;;;;;;;;13.67;100.00;98501.88;5015725;28;19929;-93
2023/10/20 00:09:38;;;;;;;;;;;;;;;13.69;100.00;98515.75;5015435;28;20371;-92
2023/10/20 00:12:04;;;;;;;;;;;;;;;13.65;100.00;98500.19;5015083;28;20454;-91
2023/10/20 00:14:29;;;;;;;;;;;;;;;13.65;100.00;98492.34;5014581;28;19921;-92
2023/10/20 00:16:55;;;;;;;;;;;;;;;13.67;100.00;98490.53;5014858;28;20446;-92
2023/10/20 00:19:20;;;;;;;;;;;;;;;13.67;100.00;98486.19;5015925;28;20261;-92
2023/10/20 00:21:45;;;;;;;;;;;;;;;13.68;100.00;98482.63;5014441;28;19957;-91
2023/10/20 00:24:11;;;;;;;;;;;;;;;13.69;100.00;98479.13;5044040;28;19914;-92
2023/10/20 00:26:36;;;;;;;;;;;;;;;13.68;100.00;98463.47;5014814;28;19914;-92
2023/10/20 00:29:01;;;;;;;;;;;;;;;13.68;100.00;98453.84;5015397;28;19914;-92
2023/10/20 00:31:27;;;;;;;;;;;;;;;13.66;100.00;98460.91;5015282;28;19917;-91
2023/10/20 00:33:52;;;;;;;;;;;;;;;13.66;100.00;98449.59;5014584;28;19920;-92
2023/10/20 00:36:17;;;;;;;;;;;;;;;13.65;100.00;98445.25;5022425;28;19914;-92
2023/10/20 00:38:43;;;;;;;;;;;;;;;13.65;100.00;98435.63;5015702;28;19913;-92
2023/10/20 00:41:08;;;;;;;;;;;;;;;13.66;100.00;98426.03;5014704;28;20261;-92
2023/10/20 00:43:37;;;;;;;;;;;;;;;13.67;100.00;98422.50;5015566;28;19913;-92
2023/10/20 00:46:04;;;;;;;;;;;;;;;13.65;100.00;98411.22;5014186;28;19913;-91
2023/10/20 00:48:31;;;;;;;;;;;;;;;13.62;100.00;98400.84;5015297;28;19913;-93
2023/10/20 00:50:56;;;;;;;;;;;;;;;13.62;100.00;98401.69;5014198;28;19917;-92
2023/10/20 00:53:23;;;;;;;;;;;;;;;13.60;100.00;98403.50;5014013;28;19924;-91
2023/10/20 00:55:48;;;;;;;;;;;;;;;13.59;100.00;98401.78;5014147;28;19913;-92
2023/10/20 00:58:13;;;;;;;;;;;;;;;13.59;100.00;98399.16;5014322;28;20244;-92
2023/10/20 01:00:39;;;;;;;;;;;;;;;13.57;100.00;98386.13;5026389;28;20401;-93
2023/10/20 01:03:04;;;;;;;;;;;;;;;13.57;100.00;98382.66;5013887;28;19913;-93
2023/10/20 01:05:30;;;;;;;;;;;;;;;13.56;100.00;98373.09;4997675;28;19959;-92
2023/10/20 01:07:55;;;;;;;;;;;;;;;13.56;100.00;98379.16;5013775;28;19925;-92
2023/10/20 01:10:20;;;;;;;;;;;;;;;13.54;100.00;98375.75;5014612;28;19936;-92
2023/10/20 01:12:45;;;;;;;;;;;;;;;13.54;100.00;98374.88;5013624;28;20494;-92
2023/10/20 01:15:14;;;;;;;;;;;;;;;13.54;100.00;98361.78;4997139;28;19920;-92
2023/10/20 01:17:39;;;;;;;;;;;;;;;13.55;100.00;98355.66;5013973;28;19918;-92
2023/10/20 01:20:06;;;;;;;;;;;;;;;13.54;100.00;98346.09;5013981;28;19921;-92
2023/10/20 01:22:31;;;;;;;;;;;;;;;13.54;100.00;98340.88;5013549;28;20303;-92
2023/10/20 01:24:56;;;;;;;;;;;;;;;13.52;100.00;98325.22;5013961;28;19913;-92
2023/10/20 01:27:22;;;;;;;;;;;;;;;13.51;100.00;98334.00;5013664;28;20011;-93
2023/10/20 01:29:47;;;;;;;;;;;;;;;13.49;100.00;98327.94;5013747;28;19930;-92
2023/10/20 01:32:12;;;;;;;;;;;;;;;13.49;100.00;98314.84;5013877;28;19921;-93
2023/10/20 01:34:37;;;;;;;;;;;;;;;13.51;100.00;98330.50;5025922;28;19932;-92
2023/10/20 01:37:03;;;;;;;;;;;;;;;13.51;100.00;98322.66;5014686;28;20370;-92
2023/10/20 01:39:29;;;;;;;;;;;;;;;13.49;100.00;98319.22;5014561;28;19914;-93
2023/10/20 01:41:54;;;;;;;;;;;;;;;13.48;100.00;98320.13;5013784;28;19910;-93
2023/10/20 01:44:19;;;;;;;;;;;;;;;13.48;100.00;98320.97;5013958;28;19920;-93
2023/10/20 01:46:49;;;;;;;;;;;;;;;13.49;100.00;98327.06;5014606;28;19913;-92
2023/10/20 01:49:15;;;;;;;;;;;;;;;13.48;100.00;98318.34;5027120;28;20274;-92
2023/10/20 01:51:40;;;;;;;;;;;;;;;13.49;100.00;98314.00;5013392;28;19924;-92
2023/10/20 01:54:06;;;;;;;;;;;;;;;13.49;100.00;98301.75;5016620;28;19913;-92
2023/10/20 01:56:31;;;;;;;;;;;;;;;13.49;100.00;98306.16;5026032;28;19917;-92
2023/10/20 01:58:56;;;;;;;;;;;;;;;13.55;100.00;98300.72;5016264;28;19913;-92
2023/10/20 02:01:22;;;;;;;;;;;;;;;13.53;100.00;98292.94;5017736;28;19936;-93
2023/10/20 02:03:49;;;;;;;;;;;;;;;13.48;100.00;98283.50;4997041;28;19963;-91
2023/10/20 02:06:14;;;;;;;;;;;;;;;13.53;100.00;98279.00;5013557;28;20052;-92
2023/10/20 02:08:40;;;;;;;;;;;;;;;13.48;100.00;98275.66;5030033;28;19972;-93
2023/10/20 02:11:05;;;;;;;;;;;;;;;13.49;100.00;98269.53;5049230;28;19913;-92
2023/10/20 02:13:30;;;;;;;;;;;;;;;13.48;100.00;98259.97;5016356;28;20439;-93
2023/10/20 02:15:55;;;;;;;;;;;;;;;13.49;100.00;98266.91;5016495;28;19927;-93
2023/10/20 02:18:20;;;;;;;;;;;;;;;13.49;100.00;98270.38;5033793;28;20295;-93
2023/10/20 02:20:55;;;;;;;;;;;;;;;13.50;100.00;98260.78;5016620;28;20384;-93
2023/10/20 02:23:20;;;;;;;;;;;;;;;13.49;100.00;98256.44;5034209;28;19996;-93
2023/10/20 02:25:45;;;;;;;;;;;;;;;13.48;100.00;98254.72;5016555;28;19941;-92
2023/10/20 02:28:10;;;;;;;;;;;;;;;13.50;100.00;98247.72;5016428;28;19913;-93
2023/10/20 02:30:36;;;;;;;;;;;;;;;13.49;100.00;98240.75;5016412;28;19921;-92
2023/10/20 02:33:02;;;;;;;;;;;;;;;13.48;100.00;98231.19;5016126;28;20334;-92
2023/10/20 02:35:27;;;;;;;;;;;;;;;13.47;100.00;98232.06;5033990;28;19917;-92
2023/10/20 02:37:52;;;;;;;;;;;;;;;13.49;100.00;98225.91;5033948;28;19920;-93
2023/10/20 02:40:18;;;;;;;;;;;;;;;13.49;100.00;98214.59;5015887;28;19974;-92
2023/10/20 02:42:44;;;;;;;;;;;;;;;13.49;100.00;98206.75;5015976;28;20557;-92
2023/10/20 02:45:10;;;;;;;;;;;;;;;13.55;100.00;98209.16;5033511;28;19913;-92
2023/10/20 02:47:36;;;;;;;;;;;;;;;13.49;100.00;98207.59;5015804;28;19917;-92
2023/10/20 02:50:01;;;;;;;;;;;;;;;13.51;100.00;98207.53;5016154;28;19920;-92
2023/10/20 02:52:27;;;;;;;;;;;;;;;13.50;100.00;98195.38;5015857;28;19924;-92
2023/10/20 02:54:53;;;;;;;;;;;;;;;13.48;100.00;98187.56;5015984;28;19928;-91
2023/10/20 02:57:18;;;;;;;;;;;;;;;13.49;100.00;98178.81;5015875;28;19924;-92
2023/10/20 02:59:44;;;;;;;;;;;;;;;13.48;100.00;98171.84;5015650;28;19920;-91
2023/10/20 03:02:09;;;;;;;;;;;;;;;13.52;100.00;98180.47;5015775;28;19963;-92
2023/10/20 03:04:34;;;;;;;;;;;;;;;13.48;100.00;98171.00;5015841;28;19941;-92
2023/10/20 03:06:59;;;;;;;;;;;;;;;13.49;100.00;98152.66;5032992;28;19943;-92
2023/10/20 03:09:25;;;;;;;;;;;;;;;13.46;100.00;98141.44;5033047;28;19913;-92
2023/10/20 03:11:51;;;;;;;;;;;;;;;13.45;100.00;98135.34;5015674;28;19928;-93
2023/10/20 03:14:17;;;;;;;;;;;;;;;13.46;100.00;98138.84;5015465;28;19913;-92
2023/10/20 03:16:42;;;;;;;;;;;;;;;13.44;100.00;98138.88;5015862;28;19963;-93
2023/10/20 03:19:08;;;;;;;;;;;;;;;13.48;100.00;98137.00;5015893;28;19917;-92
2023/10/20 03:21:34;;;;;;;;;;;;;;;13.43;100.00;98139.78;5033210;28;19913;-92
2023/10/20 03:23:59;;;;;;;;;;;;;;;13.42;100.00;98147.69;5019101;28;19920;-93
2023/10/20 03:26:24;;;;;;;;;;;;;;;13.44;100.00;98143.25;5019740;28;20008;-93
2023/10/20 03:28:49;;;;;;;;;;;;;;;13.43;100.00;98137.16;5018954;28;19913;-93
2023/10/20 03:31:14;;;;;;;;;;;;;;;13.42;100.00;98132.81;5007328;28;19965;-93
2023/10/20 03:33:40;;;;;;;;;;;;;;;13.41;100.00;98128.50;5037323;28;20000;-92
2023/10/20 03:36:05;;;;;;;;;;;;;;;13.39;100.00;98118.09;5019752;28;20368;-93
2023/10/20 03:38:32;;;;;;;;;;;;;;;13.39;100.00;98110.22;5036313;28;20003;-93
2023/10/20 03:41:07;;;;;;;;;;;;;;;13.39;100.00;98109.38;5019568;28;19984;-93
2023/10/20 03:43:34;;;;;;;;;;;;;;;13.39;100.00;98110.22;5019795;28;19905;-93
2023/10/20 03:45:59;;;;;;;;;;;;;;;13.44;100.00;98112.72;5019550;28;19919;-93
2023/10/20 03:48:25;;;;;;;;;;;;;;;13.38;100.00;98119.00;5019452;28;20090;-93
2023/10/20 03:50:51;;;;;;;;;;;;;;;13.36;100.00;98115.56;5019374;28;19917;-92
2023/10/20 03:53:26;;;;;;;;;;;;;;;13.36;100.00;98112.09;5035430;28;20295;-92
2023/10/20 03:56:07;;;;;;;;;;;;;;;13.38;100.00;98092.84;5035600;28;19936;-92
2023/10/20 03:58:33;;;;;;;;;;;;;;;13.37;100.00;98075.44;5019066;28;19939;-92
2023/10/20 04:01:01;;;;;;;;;;;;;;;13.35;100.00;98085.09;5036412;28;20402;-91
2023/10/20 04:03:27;;;;;;;;;;;;;;;13.34;100.00;98091.22;5036299;28;19913;-92
2023/10/20 04:05:52;;;;;;;;;;;;;;;13.32;100.00;98085.16;5018835;28;19919;-92
2023/10/20 04:08:21;;;;;;;;;;;;;;;13.33;100.00;98083.41;5018410;28;20023;-92
2023/10/20 04:10:46;;;;;;;;;;;;;;;13.34;100.00;98083.38;5048963;28;20436;-92
2023/10/20 04:13:12;;;;;;;;;;;;;;;13.35;100.00;98071.16;5036501;28;19917;-92
2023/10/20 04:15:39;;;;;;;;;;;;;;;13.33;100.00;98058.09;5036340;28;19928;-92
2023/10/20 04:18:04;;;;;;;;;;;;;;;13.33;100.00;98052.03;5035168;28;20371;-92
2023/10/20 04:20:30;;;;;;;;;;;;;;;13.34;100.00;98051.13;5018268;28;19996;-92
2023/10/20 04:22:58;;;;;;;;;;;;;;;13.33;100.00;98039.78;5036114;28;19979;-92
2023/10/20 04:25:23;;;;;;;;;;;;;;;13.33;100.00;98028.50;5018228;28;19964;-92
2023/10/20 04:27:57;;;;;;;;;;;;;;;13.33;100.00;98029.34;5018631;28;19913;-92
2023/10/20 05:00:29;;;;;;;;;;;;;;;13.29;100.00;97957.13;5035282;28;20323;-90
2023/10/20 05:02:39;;;;;;;;;;;;;;;13.30;100.00;97952.75;5034388;28;20422;-91
2023/10/20 05:05:20;;;;;;;;;;;;;;;13.29;100.00;97946.66;5034400;28;19936;-90
2023/10/20 05:07:50;;;;;;;;;;;;;;;13.30;100.00;97937.06;5016398;28;20260;-91
2023/10/20 05:10:15;;;;;;;;;;;;;;;13.29;100.00;97930.97;5049738;28;19913;-92
2023/10/20 05:12:41;;;;;;;;;;;;;;;13.31;100.00;97923.94;5017753;28;19932;-92
2023/10/20 05:15:06;;;;;;;;;;;;;;;13.29;100.00;97925.72;5017284;28;19952;-93
2023/10/20 05:17:34;;;;;;;;;;;;;;;13.31;100.00;97929.16;5017808;28;20412;-93
2023/10/20 05:19:59;;;;;;;;;;;;;;;13.30;100.00;97927.44;5017423;28;20405;-93
2023/10/20 05:22:24;;;;;;;;;;;;;;;13.29;100.00;97910.03;5017261;28;19914;-93
2023/10/20 05:24:51;;;;;;;;;;;;;;;13.29;100.00;97904.81;5017560;28;19967;-93
2023/10/20 05:27:16;;;;;;;;;;;;;;;13.30;100.00;97900.47;5017361;28;19999;-93
2023/10/20 05:29:41;;;;;;;;;;;;;;;13.30;100.00;97897.84;5017318;28;20625;-93
2023/10/20 05:32:06;;;;;;;;;;;;;;;13.32;100.00;97904.69;5017092;28;19924;-93
2023/10/20 05:34:32;;;;;;;;;;;;;;;13.29;100.00;97903.97;5017589;28;20004;-94
2023/10/20 05:36:57;;;;;;;;;;;;;;;13.28;100.00;97913.59;5017333;28;19913;-93
2023/10/20 05:39:22;;;;;;;;;;;;;;;13.28;100.00;97920.56;5030948;28;20406;-93
2023/10/20 05:41:48;;;;;;;;;;;;;;;13.29;100.00;97922.28;4999153;28;20354;-93
2023/10/20 05:44:14;;;;;;;;;;;;;;;13.29;100.00;97925.72;5025199;28;20398;-94
2023/10/20 05:46:40;;;;;;;;;;;;;;;13.30;100.00;97911.75;5005576;28;19917;-93
2023/10/20 05:49:05;;;;;;;;;;;;;;;13.31;100.00;97903.03;5026902;28;19967;-93
2023/10/20 05:51:31;;;;;;;;;;;;;;;13.31;100.00;97904.75;5029262;28;19929;-93
2023/10/20 05:53:56;;;;;;;;;;;;;;;13.30;100.00;97900.47;5010538;28;19918;-92
2023/10/20 05:56:21;;;;;;;;;;;;;;;13.31;100.00;97895.19;5012927;28;19917;-92
2023/10/20 05:58:46;;;;;;;;;;;;;;;13.34;100.00;97902.94;5007003;28;20303;-91
2023/10/20 06:01:11;;;;;;;;;;;;;;;13.31;100.00;97889.94;5024432;28;20404;-92
2023/10/20 06:03:37;;;;;;;;;;;;;;;13.34;100.00;97892.47;5035053;28;19925;-92
2023/10/20 06:06:03;;;;;;;;;;;;;;;13.31;100.00;97882.09;5015886;28;19922;-92
2023/10/20 06:08:29;;;;;;;;;;;;;;;13.29;100.00;97878.66;5005736;28;20402;-92
2023/10/20 06:10:58;;;;;;;;;;;;;;;13.29;100.00;97872.59;5034191;28;19917;-92
2023/10/20 06:13:24;;;;;;;;;;;;;;;13.29;100.00;97873.44;5030822;28;19928;-92
2023/10/20 06:15:49;;;;;;;;;;;;;;;13.29;100.00;97867.38;5026728;28;19917;-92
2023/10/20 06:18:14;;;;;;;;;;;;;;;13.29;100.00;97881.28;5014863;28;19920;-92
2023/10/20 06:20:39;;;;;;;;;;;;;;;13.28;100.00;97897.03;5027161;28;20000;-92
2023/10/20 06:23:05;;;;;;;;;;;;;;;13.28;100.00;97897.03;5009090;28;19974;-92
2023/10/20 06:25:35;;;;;;;;;;;;;;;13.30;100.00;97895.22;5030305;28;19933;-93
2023/10/20 06:28:00;;;;;;;;;;;;;;;13.27;100.00;97866.59;5012808;28;19924;-92
2023/10/20 06:30:26;;;;;;;;;;;;;;;13.27;100.00;97864.81;5022776;28;20346;-92
2023/10/20 06:33:16;;;;;;;;;;;;;;;13.27;100.00;97871.81;5016212;28;19921;-92
2023/10/20 06:35:52;;;;;;;;;;;;;;;13.28;100.00;97870.88;5003867;28;20599;-92
2023/10/20 06:38:35;;;;;;;;;;;;;;;13.28;100.00;97876.97;5010364;28;20478;-92
2023/10/20 06:41:00;;;;;;;;;;;;;;;13.28;100.00;97886.56;5006722;28;20597;-92
2023/10/20 06:43:25;;;;;;;;;;;;;;;13.30;100.00;97884.78;5022881;28;19924;-93
2023/10/20 06:45:57;;;;;;;;;;;;;;;13.27;100.00;97885.72;5019105;28;19949;-92
2023/10/20 06:48:23;;;;;;;;;;;;;;;13.27;100.00;97880.50;5020988;28;19964;-92
2023/10/20 06:50:48;;;;;;;;;;;;;;;13.28;100.00;97868.25;5007280;28;19964;-92
2023/10/20 06:53:13;;;;;;;;;;;;;;;13.30;100.00;97864.69;5011144;28;19921;-93
2023/10/20 06:55:42;;;;;;;;;;;;;;;13.27;100.00;97859.56;5031637;28;19940;-92
2023/10/20 06:58:09;;;;;;;;;;;;;;;13.28;100.00;97860.41;5006580;28;19926;-93
2023/10/20 07:00:35;;;;;;;;;;;;;;;13.31;100.00;97855.06;5008409;28;19921;-93
2023/10/20 07:03:00;;;;;;;;;;;;;;;13.28;100.00;97856.06;5005465;28;19924;-93
2023/10/20 07:05:26;;;;;;;;;;;;;;;13.28;100.00;97856.06;5031998;28;20291;-93
2023/10/20 07:07:51;;;;;;;;;;;;;;;13.29;100.00;97857.75;5029023;28;20016;-94
2023/10/20 07:10:18;;;;;;;;;;;;;;;13.29;100.00;97862.13;5018337;28;19917;-94
2023/10/20 07:12:43;;;;;;;;;;;;;;;13.28;100.00;97858.69;5007804;28;19990;-94
2023/10/20 07:15:09;;;;;;;;;;;;;;;13.31;100.00;97857.69;5011390;28;20337;-94
2023/10/20 07:17:34;;;;;;;;;;;;;;;13.28;100.00;97849.97;4999876;28;19924;-95
2023/10/20 07:20:00;;;;;;;;;;;;;;;13.27;100.00;97853.50;5005199;28;19962;-94
2023/10/20 07:22:26;;;;;;;;;;;;;;;13.31;100.00;97852.47;5004778;28;20363;-92
2023/10/20 07:24:51;;;;;;;;;;;;;;;13.28;100.00;97845.59;5004182;28;19959;-93
2023/10/20 07:27:17;;;;;;;;;;;;;;;13.29;100.00;97849.06;5010955;28;19952;-92
2023/10/20 07:29:43;;;;;;;;;;;;;;;13.28;100.00;97843.00;5006949;28;19917;-93
2023/10/20 07:32:09;;;;;;;;;;;;;;;13.28;100.00;97840.38;5006763;28;20441;-93
2023/10/20 07:34:35;;;;;;;;;;;;;;;13.29;100.00;97843.81;5024975;28;20326;-92
2023/10/20 07:37:00;;;;;;;;;;;;;;;13.29;100.00;97846.44;5008318;28;19917;-92
2023/10/20 07:39:25;;;;;;;;;;;;;;;13.28;100.00;97850.84;5028387;28;19971;-92
2023/10/20 07:41:50;;;;;;;;;;;;;;;13.29;100.00;97849.91;5008798;28;20032;-93
2023/10/20 07:44:16;;;;;;;;;;;;;;;13.28;100.00;97842.13;5004475;28;20363;-93
2023/10/20 07:46:42;;;;;;;;;;;;;;;13.32;100.00;97834.09;5004600;28;19917;-93
2023/10/20 07:49:08;;;;;;;;;;;;;;;13.28;100.00;97839.50;5013318;28;19920;-94
2023/10/20 07:51:34;;;;;;;;;;;;;;;13.30;100.00;97832.47;5013988;28;19965;-93
2023/10/20 07:53:59;;;;;;;;;;;;;;;13.26;100.00;97831.72;5011629;28;19948;-93
2023/10/20 07:56:25;;;;;;;;;;;;;;;13.25;100.00;97830.00;5011072;28;19917;-94
2023/10/20 07:58:50;;;;;;;;;;;;;;;13.23;100.00;97827.44;5014063;28;19917;-94
2023/10/20 08:01:19;;;;;;;;;;;;;;;13.32;100.00;97821.03;5007021;28;19936;-93
2023/10/20 08:03:47;;;;;;;;;;;;;;;13.25;100.00;97813.47;5008055;28;19956;-93
2023/10/20 08:06:12;;;;;;;;;;;;;;;13.22;100.00;97809.19;5015639;28;19940;-93
2023/10/20 08:08:38;;;;;;;;;;;;;;;13.20;100.00;97806.63;5005028;28;20269;-93
2023/10/20 08:11:03;;;;;;;;;;;;;;;13.20;100.00;97808.41;5016261;28;19957;-94
2023/10/20 08:13:28;;;;;;;;;;;;;;;13.20;100.00;97803.19;5014985;28;19948;-94
2023/10/20 08:15:54;;;;;;;;;;;;;;;13.18;100.00;97815.47;5015252;28;19917;-94
2023/10/20 08:18:19;;;;;;;;;;;;;;;13.16;100.00;97817.28;5015101;28;19913;-94
2023/10/20 08:20:45;;;;;;;;;;;;;;;13.13;100.00;97812.16;5015042;28;19933;-93
2023/10/20 08:23:10;;;;;;;;;;;;;;;13.14;100.00;97825.16;5015398;28;19913;-93
2023/10/20 08:25:38;;;;;;;;;;;;;;;13.15;100.00;97823.41;4999010;28;19972;-94
2023/10/20 08:28:04;;;;;;;;;;;;;;;13.11;100.00;97816.59;5007520;28;19917;-94
2023/10/20 08:30:30;;;;;;;;;;;;;;;13.13;100.00;97812.16;5014221;28;19928;-93
2023/10/20 08:32:55;;;;;;;;;;;;;;;13.10;100.00;97818.34;5007888;28;19921;-93
2023/10/20 08:35:21;;;;;;;;;;;;;;;13.10;100.00;97820.94;5004846;28;19932;-93
2023/10/20 08:37:46;;;;;;;;;;;;;;;13.07;100.00;97815.84;5001448;28;19918;-95
2023/10/20 08:40:12;;;;;;;;;;;;;;;13.08;100.00;97816.69;5006122;28;19933;-93
2023/10/20 08:42:40;;;;;;;;;;;;;;;13.18;100.00;97815.47;5014424;28;19914;-95
2023/10/20 08:45:15;;;;;;;;;;;;;;;13.07;100.00;97802.78;5015413;28;19948;-94
2023/10/20 08:47:44;;;;;;;;;;;;;;;13.01;100.00;97798.59;5015416;28;19996;-95
2023/10/20 08:50:09;;;;;;;;;;;;;;;12.93;100.00;97805.84;5015061;28;20000;-94
2023/10/20 08:52:35;;;;;;;;;;;;;;;12.99;100.00;97803.06;5008272;28;20012;-94
2023/10/20 08:55:00;;;;;;;;;;;;;;;12.89;100.00;97806.91;5026133;28;20339;-96
2023/10/20 08:57:27;;;;;;;;;;;;;;;12.83;100.00;97812.31;5006934;28;19913;-95
2023/10/20 08:59:53;;;;;;;;;;;;;;;12.85;100.00;97810.50;5006805;28;20368;-93
2023/10/20 09:02:21;;;;;;;;;;;;;;;12.80;100.00;97802.84;4985858;28;19917;-94
2023/10/20 09:04:51;;;;;;;;;;;;;;;12.78;100.00;97809.88;5006972;28;19925;-95
2023/10/20 09:07:16;;;;;;;;;;;;;;;12.76;100.00;97810.81;5007641;28;19922;-94
2023/10/20 09:09:42;;;;;;;;;;;;;;;12.77;100.00;97813.38;5002227;28;20284;-93
2023/10/20 09:12:08;;;;;;;;;;;;;;;12.72;100.00;97804.84;5014164;28;19917;-94
2023/10/20 09:14:36;;;;;;;;;;;;;;;12.68;100.00;97809.31;5013901;28;19917;-93
2023/10/20 09:17:02;;;;;;;;;;;;;;;12.66;100.00;97805.06;4995812;28;19972;-94
2023/10/20 09:19:28;;;;;;;;;;;;;;;12.63;100.00;97806.03;5007941;28;19918;-93
2023/10/20 09:21:57;;;;;;;;;;;;;;;12.60;100.00;97802.66;5014595;28;19914;-94
2023/10/20 09:24:27;;;;;;;;;;;;;;;12.56;100.00;97787.97;5030246;28;19921;-93
2023/10/20 09:26:52;;;;;;;;;;;;;;;12.55;100.00;97787.13;4995662;28;20264;-93
2023/10/20 09:29:19;;;;;;;;;;;;;;;12.52;100.00;97789.84;4996422;28;19921;-94
2023/10/20 09:31:45;;;;;;;;;;;;;;;12.51;100.00;97793.38;4996281;28;19925;-94
2023/10/20 09:34:10;;;;;;;;;;;;;;;12.48;100.00;97806.53;5005227;28;19939;-94
2023/10/20 09:36:39;;;;;;;;;;;;;;;12.49;100.00;97797.78;4997659;28;20007;-95
2023/10/20 09:39:08;;;;;;;;;;;;;;;12.42;100.00;97796.28;5014366;28;19917;-93
2023/10/20 09:41:36;;;;;;;;;;;;;;;12.43;100.00;97798.00;5016448;28;19924;-96
2023/10/20 09:44:06;;;;;;;;;;;;;;;12.38;100.00;97797.28;5028238;28;19919;-95
2023/10/20 09:46:43;;;;;;;;;;;;;;;12.35;100.00;97793.91;5013830;28;19917;-95
2023/10/20 09:49:18;;;;;;;;;;;;;;;12.35;100.00;97793.91;5011798;28;19914;-94
2023/10/20 09:51:45;;;;;;;;;;;;;;;12.43;100.00;97792.78;5002247;28;19918;-94
2023/10/20 09:54:11;;;;;;;;;;;;;;;12.43;100.00;97787.56;5013832;28;20000;-93
2023/10/20 09:56:37;;;;;;;;;;;;;;;12.34;100.00;97789.56;5014925;28;20287;-95
2023/10/20 09:59:04;;;;;;;;;;;;;;;12.34;100.00;97789.56;5014303;28;19914;-94
2023/10/20 10:01:30;;;;;;;;;;;;;;;12.32;100.00;97791.34;5006318;28;20339;-94
2023/10/20 10:04:05;;;;;;;;;;;;;;;12.35;100.00;97791.28;5013544;28;19917;-95
2023/10/20 10:06:34;;;;;;;;;;;;;;;12.33;100.00;97782.63;5013723;28;19920;-95
2023/10/20 10:09:00;;;;;;;;;;;;;;;12.35;100.00;97793.03;5013927;28;19933;-95
2023/10/20 10:11:28;;;;;;;;;;;;;;;12.34;100.00;97793.94;5013550;28;19967;-94
2023/10/20 10:13:54;;;;;;;;;;;;;;;12.40;100.00;97787.63;5015252;28;19918;-94
2023/10/20 10:16:20;;;;;;;;;;;;;;;12.41;100.00;97778.91;5013386;28;19913;-94
2023/10/20 10:18:46;;;;;;;;;;;;;;;12.43;100.00;97777.13;5014113;28;19913;-94
2023/10/20 10:21:30;;;;;;;;;;;;;;;12.39;100.00;97783.34;5015094;28;20000;-94
2023/10/20 10:24:16;;;;;;;;;;;;;;;12.44;100.00;97773.59;4997744;28;19913;-95
2023/10/20 10:26:44;;;;;;;;;;;;;;;12.39;100.00;97765.91;5006295;28;19920;-93
2023/10/20 10:29:12;;;;;;;;;;;;;;;12.43;100.00;97774.50;4993986;28;19913;-94
2023/10/20 10:31:38;;;;;;;;;;;;;;;12.45;100.00;97770.91;4993692;28;19918;-94
2023/10/20 10:34:06;;;;;;;;;;;;;;;12.45;100.00;97772.69;5007482;28;19963;-94
2023/10/20 10:36:44;;;;;;;;;;;;;;;12.47;100.00;97757.81;5013116;28;20431;-93
2023/10/20 10:39:19;;;;;;;;;;;;;;;12.55;100.00;97758.41;5013394;28;19921;-93
2023/10/20 10:41:47;;;;;;;;;;;;;;;12.58;100.00;97750.47;5016450;28;19932;-94
2023/10/20 10:44:13;;;;;;;;;;;;;;;12.62;100.00;97746.84;5016248;28;19917;-94
2023/10/20 10:46:38;;;;;;;;;;;;;;;12.63;100.00;97743.34;5017018;28;19924;-94
2023/10/20 10:49:13;;;;;;;;;;;;;;;12.64;100.00;97737.22;5016664;28;20291;-94
2023/10/20 10:51:42;;;;;;;;;;;;;;;12.65;100.00;97738.06;5013042;28;19921;-94
2023/10/20 10:54:08;;;;;;;;;;;;;;;12.61;100.00;97733.84;5013329;28;19960;-94
2023/10/20 10:56:37;;;;;;;;;;;;;;;12.61;100.00;97739.91;5013107;28;19909;-95
2023/10/20 10:59:12;;;;;;;;;;;;;;;12.63;100.00;97742.47;5013153;28;19936;-95
2023/10/20 11:01:39;;;;;;;;;;;;;;;12.63;100.00;97734.63;5013299;28;19914;-95
2023/10/20 11:04:06;;;;;;;;;;;;;;;12.62;100.00;97715.50;5013319;28;19913;-95
2023/10/20 11:06:43;;;;;;;;;;;;;;;12.62;100.00;97720.72;5015484;28;19931;-95
2023/10/20 11:09:19;;;;;;;;;;;;;;;12.63;100.00;97701.53;5031658;28;19925;-93
2023/10/20 11:11:47;;;;;;;;;;;;;;;12.65;100.00;97688.41;5026397;28;19917;-94
2023/10/20 11:14:13;;;;;;;;;;;;;;;12.68;100.00;97698.75;5016248;28;19921;-94
2023/10/20 11:16:45;;;;;;;;;;;;;;;12.73;100.00;97698.59;5014201;28;20003;-93
2023/10/20 11:19:18;;;;;;;;;;;;;;;12.72;100.00;97704.75;5016093;28;20286;-94
2023/10/20 11:21:46;;;;;;;;;;;;;;;12.74;100.00;97695.91;5008354;28;20359;-94
2023/10/20 11:24:11;;;;;;;;;;;;;;;12.77;100.00;97679.28;5026288;28;19917;-96
2023/10/20 11:27:06;;;;;;;;;;;;;;;12.79;100.00;97677.47;5016145;28;20047;-94
2023/10/20 11:29:45;;;;;;;;;;;;;;;12.83;100.00;97673.81;5027077;28;19959;-94
2023/10/20 11:32:29;;;;;;;;;;;;;;;;;;;;;
2023/10/20 11:35:02;;;;;;;;;;;;;;;12.88;100.00;97669.28;5024755;28;19913;-95
2023/10/20 11:37:35;;;;;;;;;;;;;;;12.91;100.00;97656.13;5015940;28;19939;-94
2023/10/20 11:40:01;;;;;;;;;;;;;;;12.96;100.00;97662.03;5015568;28;19920;-94
2023/10/20 11:42:53;;;;;;;;;;;;;;;12.94;100.00;97665.59;5014977;28;20290;-94
2023/10/20 12:14:01;;;;;;;;;;;;;;;13.00;100.00;97628.78;4988196;28;19936;-96
2023/10/20 12:20:00;;;;;;;;;;;;;;;12.99;100.00;97630.56;4928569;29;19984;-95
2023/10/20 12:22:54;;;;;;;;;;;;;;;;;;;;;
2023/10/20 12:29:06;;;;;;;;;;;;;;;12.92;100.00;97631.69;4859904;29;20064;-96
2023/10/20 12:32:04;;;;;;;;;;;;;;;;;;;;;
2023/10/20 12:47:02;;;;;;;;;;;;;;;12.91;100.00;97632.59;4941697;28;19942;-95
2023/10/20 12:56:07;;;;;;;;;;;;;;;12.97;100.00;97631.50;5029909;28;20003;-96
2023/10/20 13:02:11;;;;;;;;;;;;;;;12.99;100.00;97627.94;4950344;29;19971;-96
2023/10/20 13:08:24;;;;;;;;;;;;;;;12.97;100.00;97657.66;4943072;28;19974;-96
2023/10/20 13:26:07;;;;;;;;;;;;;;;12.94;100.00;97708.25;4972980;28;19964;-96
2023/10/20 13:32:02;;;;;;;;;;;;;;;13.04;100.00;97711.41;5002761;28;19920;-95
2023/10/20 13:38:03;;;;;;;;;;;;;;;13.35;100.00;97724.22;4971331;28;20457;-95
2023/10/20 13:50:19;;;;;;;;;;;;;;;;;;;;;
2023/10/20 13:56:08;;;;;;;;;;;;;;;13.81;100.00;97752.09;4919030;29;19941;-96
2023/10/20 13:59:08;;;;;;;;;;;;;;;13.78;100.00;97752.22;4904356;29;20409;-96
2023/10/20 14:40:26;;;;;;;;;;;;;;;13.38;100.00;97765.06;4932271;29;19930;-96
2023/10/20 14:43:04;;;;;;;;;;;;;;;13.41;100.00;97777.19;4926862;29;21580;-96
2023/10/20 14:46:00;;;;;;;;;;;;;;;13.40;100.00;97773.72;4937369;29;19937;-95
2023/10/20 15:23:01;;;;;;;;;;;;;;;13.35;100.00;97801.78;5012511;28;19928;-96
2023/10/20 15:38:01;;;;;;;;;;;;;;;;;;;;;
2023/10/20 15:47:01;;;;;;;;;;;;;;;13.34;100.00;97834.06;5012040;28;19994;-96
2023/10/20 15:56:01;;;;;;;;;;;;;;;13.33;100.00;97830.59;4988685;28;20376;-96
2023/10/20 16:20:34;;;;;;;;;;;;;;;13.34;100.00;97855.88;4788535;26;19909;-95
2023/10/20 16:23:02;;;;;;;;;;;;;;;13.34;100.00;97858.47;4994426;28;19924;-96
2023/10/20 16:25:28;;;;;;;;;;;;;;;13.34;100.00;97861.09;4992390;28;19917;-95
2023/10/20 16:27:54;;;;;;;;;;;;;;;13.33;100.00;97867.19;5002154;28;19988;-95
2023/10/20 16:30:25;;;;;;;;;;;;;;;13.32;100.00;97865.47;4993848;28;20021;-96
2023/10/20 16:32:50;;;;;;;;;;;;;;;13.33;100.00;97871.59;4983120;28;19949;-96
2023/10/20 17:12:01;;;;;;;;;;;;;;;13.14;100.00;97910.59;4890089;29;19931;-96
2023/10/20 17:21:35;;;;;;;;;;;;;;;;;;;;;
2023/10/20 17:24:12;;;;;;;;;;;;;;;;;;;;;
2023/10/20 17:30:04;;;;;;;;;;;;;;;13.03;100.00;97910.94;4932390;29;19922;-95
2023/10/20 17:32:49;;;;;;;;;;;;;;;;;;;;;
2023/10/20 18:23:57;;;;;;;;;;;;;;;;;;;;;
2023/10/20 18:39:01;;;;;;;;;;;;;;;12.75;100.00;97976.34;4860709;29;20023;-96
2023/10/20 18:45:02;;;;;;;;;;;;;;;12.72;100.00;97979.91;4842179;29;19923;-95
2023/10/20 19:10:29;;;;;;;;;;;;;;;12.63;100.00;98001.94;4805355;29;19928;-95
2023/10/20 19:16:07;;;;;;;;;;;;;;;12.60;100.00;98024.66;4857071;29;19928;-95
2023/10/20 19:31:09;;;;;;;;;;;;;;;12.51;100.00;98047.56;4841729;29;19963;-96